SAS48D EHAM-EKCH
Flight info
| Callsign | SAS48D |
|---|---|
| Flight time | 1h 2m |
| Altitude | 37000 |
| Route | ANDIK N873 JUIST DCT DOSUR P729 TUDLO |
| Aircraft | A320/M-SDE3FGHIRWY/LB1 |
Departure
| Time | 2026-05-04 16:38 |
|---|---|
| Airport | Amsterdam Airport Schiphol (EHAM) |
Arrival
| Time | 2026-05-04 17:40 |
|---|---|
| Airport | Copenhagen Kastrup Airport (EKCH) |
| Time | Latitude | Longitude | Altitude | Speed | Heading |
|---|---|---|---|---|---|
| 2026-05-04 16:11 | 52.31007 | 4.75408 | 0 ft | 0 kts | 150° |
| 2026-05-04 16:28 | 52.31011 | 4.75404 | -1 ft | 3 kts | 149° |
| 2026-05-04 16:28 | 52.31035 | 4.75320 | -1 ft | 1 kts | 58° |
| 2026-05-04 16:29 | 52.31034 | 4.75318 | -1 ft | 0 kts | 58° |
| 2026-05-04 16:30 | 52.31066 | 4.75402 | -1 ft | 10 kts | 58° |
| 2026-05-04 16:31 | 52.31256 | 4.75486 | -1 ft | 21 kts | 356° |
| 2026-05-04 16:31 | 52.31509 | 4.75336 | -1 ft | 9 kts | 265° |
| 2026-05-04 16:32 | 52.31487 | 4.74723 | -1 ft | 23 kts | 267° |
| 2026-05-04 16:33 | 52.31473 | 4.74249 | -1 ft | 18 kts | 279° |
| 2026-05-04 16:33 | 52.31720 | 4.74170 | -1 ft | 22 kts | 3° |
| 2026-05-04 16:34 | 52.32032 | 4.74100 | -1 ft | 25 kts | 291° |
| 2026-05-04 16:34 | 52.32045 | 4.73798 | -1 ft | 28 kts | 273° |
| 2026-05-04 16:35 | 52.32316 | 4.73041 | -1 ft | 29 kts | 320° |
| 2026-05-04 16:35 | 52.32805 | 4.72288 | -1 ft | 35 kts | 312° |
| 2026-05-04 16:36 | 52.32971 | 4.71981 | -1 ft | 32 kts | 311° |
| 2026-05-04 16:36 | 52.33082 | 4.71519 | -1 ft | 21 kts | 310° |
| 2026-05-04 16:37 | 52.33303 | 4.71108 | -1 ft | 27 kts | 312° |
| 2026-05-04 16:37 | 52.33467 | 4.70952 | -2 ft | 29 kts | 356° |
| 2026-05-04 16:37 | 52.34371 | 4.71032 | -4 ft | 125 kts | 3° |
| 2026-05-04 16:38 | 52.36517 | 4.71249 | 889 ft | 161 kts | 3° |
| 2026-05-04 16:39 | 52.40340 | 4.71583 | 2270 ft | 219 kts | 0° |
| 2026-05-04 16:39 | 52.43673 | 4.71871 | 3382 ft | 262 kts | 1° |
| 2026-05-04 16:40 | 52.47349 | 4.72220 | 5285 ft | 274 kts | 1° |
| 2026-05-04 16:40 | 52.51149 | 4.72658 | 7115 ft | 283 kts | 8° |
| 2026-05-04 16:41 | 52.54539 | 4.75782 | 8873 ft | 298 kts | 49° |
| 2026-05-04 16:41 | 52.56918 | 4.85620 | 10707 ft | 338 kts | 73° |
| 2026-05-04 16:42 | 52.59059 | 4.95474 | 12590 ft | 355 kts | 60° |
| 2026-05-04 16:43 | 52.62508 | 5.03023 | 14286 ft | 365 kts | 51° |
| 2026-05-04 16:43 | 52.65129 | 5.08481 | 15398 ft | 371 kts | 51° |
| 2026-05-04 16:43 | 52.66694 | 5.11766 | 16047 ft | 376 kts | 51° |
| 2026-05-04 16:44 | 52.73267 | 5.25632 | 18603 ft | 394 kts | 52° |
| 2026-05-04 16:45 | 52.76664 | 5.32799 | 19780 ft | 403 kts | 52° |
| 2026-05-04 16:46 | 52.81851 | 5.43777 | 21516 ft | 415 kts | 53° |
| 2026-05-04 16:46 | 52.85468 | 5.51476 | 22695 ft | 422 kts | 54° |
| 2026-05-04 16:47 | 52.89101 | 5.59224 | 23847 ft | 429 kts | 54° |
| 2026-05-04 16:47 | 52.92785 | 5.67108 | 24828 ft | 435 kts | 54° |
| 2026-05-04 16:48 | 52.98398 | 5.79188 | 26205 ft | 445 kts | 55° |
| 2026-05-04 16:48 | 53.00297 | 5.83278 | 26649 ft | 449 kts | 55° |
| 2026-05-04 16:49 | 53.04112 | 5.91523 | 27499 ft | 455 kts | 56° |
| 2026-05-04 16:49 | 53.08000 | 5.99946 | 28334 ft | 461 kts | 56° |
| 2026-05-04 16:50 | 53.11908 | 6.08438 | 29181 ft | 466 kts | 56° |
| 2026-05-04 16:50 | 53.15872 | 6.17087 | 29998 ft | 471 kts | 56° |
| 2026-05-04 16:51 | 53.19873 | 6.25846 | 30699 ft | 477 kts | 56° |
| 2026-05-04 16:51 | 53.21886 | 6.30270 | 31024 ft | 480 kts | 56° |
| 2026-05-04 16:51 | 53.25931 | 6.39173 | 31645 ft | 487 kts | 56° |
| 2026-05-04 16:52 | 53.30035 | 6.48252 | 32429 ft | 489 kts | 56° |
| 2026-05-04 16:52 | 53.32076 | 6.52782 | 32840 ft | 490 kts | 56° |
| 2026-05-04 16:53 | 53.36477 | 6.61449 | 33641 ft | 495 kts | 44° |
| 2026-05-04 16:53 | 53.44100 | 6.73164 | 34821 ft | 496 kts | 43° |
| 2026-05-04 16:54 | 53.46646 | 6.77084 | 34978 ft | 495 kts | 43° |
| 2026-05-04 16:55 | 53.61672 | 7.00830 | 35009 ft | 493 kts | 46° |
| 2026-05-04 16:56 | 53.73661 | 7.21313 | 35011 ft | 491 kts | 46° |
| 2026-05-04 16:57 | 53.80886 | 7.33533 | 35009 ft | 491 kts | 46° |
| 2026-05-04 16:58 | 53.90483 | 7.49930 | 35015 ft | 490 kts | 46° |
| 2026-05-04 17:00 | 54.04854 | 7.74696 | 35014 ft | 490 kts | 46° |
| 2026-05-04 17:01 | 54.16732 | 7.95380 | 35018 ft | 490 kts | 46° |
| 2026-05-04 17:02 | 54.26251 | 8.12093 | 35012 ft | 489 kts | 46° |
| 2026-05-04 17:03 | 54.33338 | 8.24579 | 35009 ft | 489 kts | 46° |
| 2026-05-04 17:03 | 54.40398 | 8.37106 | 35010 ft | 480 kts | 47° |
| 2026-05-04 17:04 | 54.49593 | 8.53582 | 35008 ft | 476 kts | 47° |
| 2026-05-04 17:05 | 54.58706 | 8.70050 | 35010 ft | 475 kts | 47° |
| 2026-05-04 17:06 | 54.65521 | 8.82460 | 35009 ft | 474 kts | 47° |
| 2026-05-04 17:07 | 54.71556 | 8.93525 | 35009 ft | 474 kts | 47° |
| 2026-05-04 17:07 | 54.76816 | 9.03221 | 35010 ft | 475 kts | 47° |
| 2026-05-04 17:08 | 54.79074 | 9.07400 | 34811 ft | 473 kts | 47° |
| 2026-05-04 17:08 | 54.83572 | 9.15710 | 33621 ft | 473 kts | 47° |
| 2026-05-04 17:08 | 54.85832 | 9.19878 | 32935 ft | 473 kts | 47° |
| 2026-05-04 17:09 | 54.88087 | 9.24048 | 32259 ft | 473 kts | 47° |
| 2026-05-04 17:09 | 54.90345 | 9.28229 | 31572 ft | 474 kts | 47° |
| 2026-05-04 17:09 | 54.92606 | 9.32421 | 30862 ft | 474 kts | 47° |
| 2026-05-04 17:10 | 54.97541 | 9.39874 | 29371 ft | 475 kts | 37° |
| 2026-05-04 17:10 | 55.05388 | 9.50473 | 28997 ft | 476 kts | 37° |
| 2026-05-04 17:11 | 55.10604 | 9.57539 | 28999 ft | 476 kts | 37° |
| 2026-05-04 17:12 | 55.18469 | 9.68237 | 28994 ft | 476 kts | 37° |
| 2026-05-04 17:13 | 55.31487 | 9.86052 | 28973 ft | 475 kts | 37° |
| 2026-05-04 17:14 | 55.39206 | 9.96682 | 28969 ft | 462 kts | 38° |
| 2026-05-04 17:14 | 55.41477 | 10.00511 | 28970 ft | 445 kts | 52° |
| 2026-05-04 17:14 | 55.44033 | 10.10074 | 28976 ft | 431 kts | 82° |
| 2026-05-04 17:15 | 55.44264 | 10.15300 | 28854 ft | 423 kts | 96° |
| 2026-05-04 17:15 | 55.42680 | 10.24899 | 27946 ft | 401 kts | 126° |
| 2026-05-04 17:16 | 55.39631 | 10.33016 | 27072 ft | 396 kts | 128° |
| 2026-05-04 17:16 | 55.35260 | 10.44909 | 25909 ft | 394 kts | 117° |
| 2026-05-04 17:17 | 55.34519 | 10.49569 | 25514 ft | 399 kts | 99° |
| 2026-05-04 17:17 | 55.35406 | 10.63382 | 24356 ft | 398 kts | 83° |
| 2026-05-04 17:18 | 55.35842 | 10.68179 | 23963 ft | 396 kts | 83° |
| 2026-05-04 17:18 | 55.36680 | 10.77440 | 23129 ft | 392 kts | 83° |
| 2026-05-04 17:19 | 55.37462 | 10.86269 | 22256 ft | 387 kts | 83° |
| 2026-05-04 17:19 | 55.38222 | 10.94969 | 21040 ft | 379 kts | 83° |
| 2026-05-04 17:20 | 55.39012 | 11.04026 | 19494 ft | 371 kts | 83° |
| 2026-05-04 17:20 | 55.39769 | 11.12850 | 18017 ft | 364 kts | 83° |
| 2026-05-04 17:20 | 55.40138 | 11.17240 | 17216 ft | 360 kts | 83° |
| 2026-05-04 17:21 | 55.40858 | 11.25812 | 16095 ft | 343 kts | 83° |
| 2026-05-04 17:21 | 55.41530 | 11.33865 | 15768 ft | 322 kts | 83° |
| 2026-05-04 17:22 | 55.41852 | 11.37727 | 15294 ft | 315 kts | 83° |
| 2026-05-04 17:22 | 55.42165 | 11.41516 | 14772 ft | 312 kts | 83° |
| 2026-05-04 17:23 | 55.43083 | 11.52673 | 13166 ft | 305 kts | 83° |
| 2026-05-04 17:23 | 55.43382 | 11.56327 | 12600 ft | 302 kts | 83° |
| 2026-05-04 17:23 | 55.44751 | 11.63220 | 11505 ft | 298 kts | 58° |
| 2026-05-04 17:24 | 55.45960 | 11.66136 | 10983 ft | 294 kts | 46° |
| 2026-05-04 17:24 | 55.50405 | 11.73237 | 9940 ft | 288 kts | 39° |
| 2026-05-04 17:25 | 55.51905 | 11.75593 | 9931 ft | 288 kts | 39° |
| 2026-05-04 17:25 | 55.54863 | 11.80234 | 8852 ft | 283 kts | 39° |
| 2026-05-04 17:26 | 55.57782 | 11.84820 | 7827 ft | 278 kts | 39° |
| 2026-05-04 17:26 | 55.62027 | 11.91521 | 6945 ft | 273 kts | 39° |
| 2026-05-04 17:27 | 55.64394 | 11.95269 | 6946 ft | 274 kts | 39° |
| 2026-05-04 17:27 | 55.67217 | 11.99741 | 6710 ft | 273 kts | 39° |
| 2026-05-04 17:28 | 55.70005 | 12.04166 | 6347 ft | 262 kts | 39° |
| 2026-05-04 17:29 | 55.72923 | 12.11643 | 5565 ft | 245 kts | 73° |
| 2026-05-04 17:29 | 55.72953 | 12.20496 | 4185 ft | 239 kts | 96° |
| 2026-05-04 17:30 | 55.72414 | 12.29220 | 4005 ft | 237 kts | 95° |
| 2026-05-04 17:31 | 55.72053 | 12.35039 | 4009 ft | 238 kts | 96° |
| 2026-05-04 17:31 | 55.72564 | 12.43531 | 4006 ft | 234 kts | 66° |
| 2026-05-04 17:32 | 55.73733 | 12.48703 | 4007 ft | 234 kts | 65° |
| 2026-05-04 17:33 | 55.75562 | 12.56754 | 4008 ft | 235 kts | 65° |
| 2026-05-04 17:33 | 55.76158 | 12.59405 | 4009 ft | 235 kts | 65° |
| 2026-05-04 17:34 | 55.77992 | 12.67499 | 4010 ft | 236 kts | 65° |
| 2026-05-04 17:34 | 55.78600 | 12.70182 | 4006 ft | 235 kts | 65° |
| 2026-05-04 17:35 | 55.80272 | 12.78036 | 4001 ft | 227 kts | 82° |
| 2026-05-04 17:35 | 55.79302 | 12.83264 | 4000 ft | 226 kts | 137° |
| 2026-05-04 17:35 | 55.77995 | 12.84633 | 3782 ft | 214 kts | 173° |
| 2026-05-04 17:36 | 55.76569 | 12.84625 | 3654 ft | 199 kts | 192° |
| 2026-05-04 17:36 | 55.75269 | 12.84264 | 3516 ft | 184 kts | 195° |
| 2026-05-04 17:36 | 55.74067 | 12.83890 | 3319 ft | 174 kts | 195° |
| 2026-05-04 17:36 | 55.72936 | 12.83248 | 2884 ft | 167 kts | 228° |
| 2026-05-04 17:37 | 55.72243 | 12.81700 | 2637 ft | 162 kts | 233° |
| 2026-05-04 17:37 | 55.71372 | 12.80428 | 2407 ft | 164 kts | 224° |
| 2026-05-04 17:37 | 55.70516 | 12.79144 | 2186 ft | 162 kts | 225° |
| 2026-05-04 17:37 | 55.69681 | 12.77855 | 1982 ft | 162 kts | 225° |
| 2026-05-04 17:38 | 55.68841 | 12.76554 | 1729 ft | 161 kts | 225° |
| 2026-05-04 17:38 | 55.68048 | 12.75320 | 1510 ft | 158 kts | 225° |
| 2026-05-04 17:38 | 55.67221 | 12.74032 | 1307 ft | 158 kts | 226° |
| 2026-05-04 17:38 | 55.66423 | 12.72794 | 1092 ft | 145 kts | 225° |
| 2026-05-04 17:39 | 55.64952 | 12.70506 | 693 ft | 138 kts | 223° |
| 2026-05-04 17:39 | 55.64223 | 12.69399 | 510 ft | 139 kts | 223° |
| 2026-05-04 17:39 | 55.63500 | 12.68296 | 319 ft | 138 kts | 225° |
| 2026-05-04 17:40 | 55.62798 | 12.67148 | 153 ft | 138 kts | 225° |
| 2026-05-04 17:40 | 55.62103 | 12.66059 | 27 ft | 122 kts | 225° |
| 2026-05-04 17:40 | 55.61626 | 12.65333 | 22 ft | 51 kts | 221° |
| 2026-05-04 17:40 | 55.61533 | 12.65192 | 23 ft | 9 kts | 220° |
| 2026-05-04 17:41 | 55.61393 | 12.64973 | 25 ft | 40 kts | 223° |
| 2026-05-04 17:41 | 55.61248 | 12.64578 | 26 ft | 35 kts | 249° |
| 2026-05-04 17:41 | 55.61187 | 12.64245 | 24 ft | 23 kts | 261° |
| 2026-05-04 17:41 | 55.61268 | 12.64104 | 24 ft | 18 kts | 3° |
| 2026-05-04 17:42 | 55.61381 | 12.64227 | 24 ft | 21 kts | 30° |
| 2026-05-04 17:42 | 55.61515 | 12.64372 | 26 ft | 24 kts | 31° |
| 2026-05-04 17:42 | 55.61663 | 12.64546 | 24 ft | 27 kts | 38° |
| 2026-05-04 17:42 | 55.61820 | 12.64734 | 24 ft | 23 kts | 32° |
| 2026-05-04 17:43 | 55.61964 | 12.64896 | 25 ft | 26 kts | 33° |
| 2026-05-04 17:43 | 55.62094 | 12.65046 | 25 ft | 15 kts | 33° |
| 2026-05-04 17:43 | 55.62133 | 12.65090 | 24 ft | 2 kts | 32° |
| 2026-05-04 17:43 | 55.62158 | 12.65102 | 24 ft | 9 kts | 359° |
| 2026-05-04 17:44 | 55.62219 | 12.64989 | 26 ft | 15 kts | 301° |
| 2026-05-04 17:44 | 55.62284 | 12.64819 | 25 ft | 17 kts | 309° |
| 2026-05-04 17:44 | 55.62385 | 12.64765 | 24 ft | 12 kts | 327° |
| 2026-05-04 17:44 | 55.62443 | 12.64626 | 25 ft | 17 kts | 307° |
| 2026-05-04 17:45 | 55.62492 | 12.64495 | 26 ft | 13 kts | 303° |
| 2026-05-04 17:45 | 55.62550 | 12.64337 | 26 ft | 17 kts | 303° |
| 2026-05-04 17:45 | 55.62622 | 12.64287 | 26 ft | 10 kts | 34° |
| 2026-05-04 17:45 | 55.62677 | 12.64323 | 24 ft | 3 kts | 35° |
| 2026-05-04 17:46 | 55.62682 | 12.64368 | 24 ft | 3 kts | 101° |
| 2026-05-04 17:46 | 55.62677 | 12.64412 | 24 ft | 5 kts | 102° |
| 2026-05-04 17:46 | 55.62674 | 12.64433 | 26 ft | 2 kts | 103° |
| 2026-05-04 17:46 | 55.62673 | 12.64440 | 26 ft | 0 kts | 103° |